sensor_id;sensor_type;location;lat;lon;timestamp;P1;durP1;ratioP1;P2;durP2;ratioP2
45382;SDS011;42455;51.660;5.824;2022-09-09T00:01:37;3.0;;;2.0;;
45382;SDS011;42455;51.660;5.824;2022-09-09T00:07:02;3.0;;;2.0;;
45382;SDS011;42455;51.660;5.824;2022-09-09T00:11:52;2.0;;;2.0;;
45382;SDS011;42455;51.660;5.824;2022-09-09T00:16:58;2.0;;;2.0;;
45382;SDS011;42455;51.660;5.824;2022-09-09T00:22:12;2.0;;;2.0;;
45382;SDS011;42455;51.660;5.824;2022-09-09T00:27:08;2.0;;;2.0;;
45382;SDS011;42455;51.660;5.824;2022-09-09T00:32:18;2.0;;;2.0;;
45382;SDS011;42455;51.660;5.824;2022-09-09T00:37:20;3.0;;;2.0;;
45382;SDS011;42455;51.660;5.824;2022-09-09T00:42:32;3.0;;;2.0;;
45382;SDS011;42455;51.660;5.824;2022-09-09T00:47:46;2.0;;;2.0;;
45382;SDS011;42455;51.660;5.824;2022-09-09T00:52:56;2.0;;;2.0;;
45382;SDS011;42455;51.660;5.824;2022-09-09T00:57:45;2.0;;;2.0;;
45382;SDS011;42455;51.660;5.824;2022-09-09T01:18:16;3.0;;;3.0;;
45382;SDS011;42455;51.660;5.824;2022-09-09T01:23:30;3.0;;;2.0;;
45382;SDS011;42455;51.660;5.824;2022-09-09T01:28:29;3.0;;;2.0;;
45382;SDS011;42455;51.660;5.824;2022-09-09T01:33:32;3.0;;;2.0;;
45382;SDS011;42455;51.660;5.824;2022-09-09T01:38:45;3.0;;;2.0;;
45382;SDS011;42455;51.660;5.824;2022-09-09T01:43:50;3.0;;;2.0;;
45382;SDS011;42455;51.660;5.824;2022-09-09T01:49:03;4.5;;;3.0;;
45382;SDS011;42455;51.660;5.824;2022-09-09T01:54:15;4.0;;;3.0;;
45382;SDS011;42455;51.660;5.824;2022-09-09T02:00:07;4.5;;;3.0;;
45382;SDS011;42455;51.660;5.824;2022-09-09T02:04:44;3.0;;;3.0;;
45382;SDS011;42455;51.660;5.824;2022-09-09T02:09:58;4.0;;;3.0;;
45382;SDS011;42455;51.660;5.824;2022-09-09T02:15:08;3.0;;;3.0;;
45382;SDS011;42455;51.660;5.824;2022-09-09T02:20:10;3.0;;;3.0;;
45382;SDS011;42455;51.660;5.824;2022-09-09T02:25:17;4.5;;;3.0;;
45382;SDS011;42455;51.660;5.824;2022-09-09T02:30:21;5.0;;;3.0;;
45382;SDS011;42455;51.660;5.824;2022-09-09T02:35:28;3.0;;;3.0;;
45382;SDS011;42455;51.660;5.824;2022-09-09T02:40:34;4.0;;;3.0;;
45382;SDS011;42455;51.660;5.824;2022-09-09T02:45:41;4.0;;;3.0;;
45382;SDS011;42455;51.660;5.824;2022-09-09T02:50:56;5.0;;;3.0;;
45382;SDS011;42455;51.660;5.824;2022-09-09T02:55:54;6.0;;;3.0;;
45382;SDS011;42455;51.660;5.824;2022-09-09T03:00:59;5.0;;;3.0;;
45382;SDS011;42455;51.660;5.824;2022-09-09T03:06:05;4.0;;;3.0;;
45382;SDS011;42455;51.660;5.824;2022-09-09T03:11:11;4.5;;;4.0;;
45382;SDS011;42455;51.660;5.824;2022-09-09T03:16:17;5.5;;;3.0;;
45382;SDS011;42455;51.660;5.824;2022-09-09T03:21:24;4.0;;;3.0;;
45382;SDS011;42455;51.660;5.824;2022-09-09T03:26:30;4.0;;;3.0;;
45382;SDS011;42455;51.660;5.824;2022-09-09T03:31:36;5.0;;;3.0;;
45382;SDS011;42455;51.660;5.824;2022-09-09T03:36:42;5.0;;;3.0;;
45382;SDS011;42455;51.660;5.824;2022-09-09T03:41:48;5.0;;;4.0;;
45382;SDS011;42455;51.660;5.824;2022-09-09T03:46:55;4.5;;;3.0;;
45382;SDS011;42455;51.660;5.824;2022-09-09T03:52:01;6.0;;;4.0;;
45382;SDS011;42455;51.660;5.824;2022-09-09T03:57:08;5.0;;;3.0;;
45382;SDS011;42455;51.660;5.824;2022-09-09T04:02:12;6.0;;;4.0;;
45382;SDS011;42455;51.660;5.824;2022-09-09T04:07:19;4.0;;;3.0;;
45382;SDS011;42455;51.660;5.824;2022-09-09T04:12:24;4.0;;;3.0;;
45382;SDS011;42455;51.660;5.824;2022-09-09T04:17:30;5.0;;;3.0;;
45382;SDS011;42455;51.660;5.824;2022-09-09T04:22:36;6.0;;;3.0;;
45382;SDS011;42455;51.660;5.824;2022-09-09T04:27:43;7.0;;;4.0;;
45382;SDS011;42455;51.660;5.824;2022-09-09T04:32:49;6.0;;;4.0;;
45382;SDS011;42455;51.660;5.824;2022-09-09T04:37:55;6.0;;;3.5;;
45382;SDS011;42455;51.660;5.824;2022-09-09T04:43:02;7.0;;;4.0;;
45382;SDS011;42455;51.660;5.824;2022-09-09T04:48:07;6.0;;;4.0;;
45382;SDS011;42455;51.660;5.824;2022-09-09T04:53:14;5.0;;;3.0;;
45382;SDS011;42455;51.660;5.824;2022-09-09T04:58:20;6.0;;;3.0;;
45382;SDS011;42455;51.660;5.824;2022-09-09T05:03:26;5.0;;;3.0;;
45382;SDS011;42455;51.660;5.824;2022-09-09T05:08:32;6.0;;;3.0;;
45382;SDS011;42455;51.660;5.824;2022-09-09T05:13:38;7.0;;;4.0;;
45382;SDS011;42455;51.660;5.824;2022-09-09T05:18:45;6.0;;;3.0;;
45382;SDS011;42455;51.660;5.824;2022-09-09T05:23:51;7.0;;;3.0;;
45382;SDS011;42455;51.660;5.824;2022-09-09T05:28:57;6.0;;;3.0;;
45382;SDS011;42455;51.660;5.824;2022-09-09T05:34:03;6.0;;;3.0;;
45382;SDS011;42455;51.660;5.824;2022-09-09T05:39:09;7.0;;;3.0;;
45382;SDS011;42455;51.660;5.824;2022-09-09T05:44:16;6.0;;;3.0;;
45382;SDS011;42455;51.660;5.824;2022-09-09T05:49:22;8.0;;;3.0;;
45382;SDS011;42455;51.660;5.824;2022-09-09T05:54:28;5.0;;;3.0;;
45382;SDS011;42455;51.660;5.824;2022-09-09T05:59:33;4.0;;;3.0;;
45382;SDS011;42455;51.660;5.824;2022-09-09T06:04:39;6.0;;;3.0;;
45382;SDS011;42455;51.660;5.824;2022-09-09T06:09:46;5.0;;;3.0;;
45382;SDS011;42455;51.660;5.824;2022-09-09T06:14:52;6.5;;;3.0;;
45382;SDS011;42455;51.660;5.824;2022-09-09T06:19:57;6.0;;;3.0;;
45382;SDS011;42455;51.660;5.824;2022-09-09T06:25:04;6.0;;;3.0;;
45382;SDS011;42455;51.660;5.824;2022-09-09T06:30:10;6.0;;;3.0;;
45382;SDS011;42455;51.660;5.824;2022-09-09T06:35:16;7.0;;;3.0;;
45382;SDS011;42455;51.660;5.824;2022-09-09T06:40:22;8.0;;;3.0;;
45382;SDS011;42455;51.660;5.824;2022-09-09T06:45:28;7.0;;;3.0;;
45382;SDS011;42455;51.660;5.824;2022-09-09T06:50:34;7.0;;;3.0;;
45382;SDS011;42455;51.660;5.824;2022-09-09T06:55:41;7.0;;;3.0;;
45382;SDS011;42455;51.660;5.824;2022-09-09T07:00:47;7.0;;;3.0;;
45382;SDS011;42455;51.660;5.824;2022-09-09T07:05:53;5.0;;;3.0;;
45382;SDS011;42455;51.660;5.824;2022-09-09T07:11:02;7.0;;;3.0;;
45382;SDS011;42455;51.660;5.824;2022-09-09T07:16:06;6.0;;;3.0;;
45382;SDS011;42455;51.660;5.824;2022-09-09T07:21:14;6.0;;;3.0;;
45382;SDS011;42455;51.660;5.824;2022-09-09T07:26:20;7.0;;;3.0;;
45382;SDS011;42455;51.660;5.824;2022-09-09T07:31:25;6.0;;;3.0;;
45382;SDS011;42455;51.660;5.824;2022-09-09T07:36:34;6.0;;;3.0;;
45382;SDS011;42455;51.660;5.824;2022-09-09T07:41:38;7.0;;;3.0;;
45382;SDS011;42455;51.660;5.824;2022-09-09T07:46:43;5.0;;;2.0;;
45382;SDS011;42455;51.660;5.824;2022-09-09T07:51:49;6.0;;;2.0;;
45382;SDS011;42455;51.660;5.824;2022-09-09T07:56:55;6.0;;;2.0;;
45382;SDS011;42455;51.660;5.824;2022-09-09T08:02:00;6.0;;;2.0;;
45382;SDS011;42455;51.660;5.824;2022-09-09T08:07:06;5.0;;;2.0;;
45382;SDS011;42455;51.660;5.824;2022-09-09T08:12:12;6.0;;;2.0;;
45382;SDS011;42455;51.660;5.824;2022-09-09T08:17:17;6.0;;;2.0;;
45382;SDS011;42455;51.660;5.824;2022-09-09T08:22:23;4.0;;;2.0;;
45382;SDS011;42455;51.660;5.824;2022-09-09T08:27:29;5.0;;;2.0;;
45382;SDS011;42455;51.660;5.824;2022-09-09T08:32:36;5.0;;;2.0;;
45382;SDS011;42455;51.660;5.824;2022-09-09T08:37:42;4.0;;;2.0;;
45382;SDS011;42455;51.660;5.824;2022-09-09T08:42:53;6.0;;;2.0;;
45382;SDS011;42455;51.660;5.824;2022-09-09T08:48:07;5.0;;;2.0;;
45382;SDS011;42455;51.660;5.824;2022-09-09T08:53:01;5.0;;;2.0;;
45382;SDS011;42455;51.660;5.824;2022-09-09T08:58:09;5.0;;;2.0;;
45382;SDS011;42455;51.660;5.824;2022-09-09T09:03:16;5.0;;;2.0;;
45382;SDS011;42455;51.660;5.824;2022-09-09T09:08:54;4.0;;;1.0;;
45382;SDS011;42455;51.660;5.824;2022-09-09T09:13:27;5.0;;;1.0;;
45382;SDS011;42455;51.660;5.824;2022-09-09T09:18:31;5.0;;;1.0;;
45382;SDS011;42455;51.660;5.824;2022-09-09T09:23:42;4.5;;;1.5;;
45382;SDS011;42455;51.660;5.824;2022-09-09T09:28:44;5.0;;;1.0;;
45382;SDS011;42455;51.660;5.824;2022-09-09T09:33:51;6.0;;;2.0;;
45382;SDS011;42455;51.660;5.824;2022-09-09T09:38:57;5.5;;;2.0;;
45382;SDS011;42455;51.660;5.824;2022-09-09T09:44:03;6.0;;;1.0;;
45382;SDS011;42455;51.660;5.824;2022-09-09T09:49:09;6.0;;;2.0;;
45382;SDS011;42455;51.660;5.824;2022-09-09T09:54:28;6.0;;;2.0;;
45382;SDS011;42455;51.660;5.824;2022-09-09T09:59:21;3.0;;;1.5;;
45382;SDS011;42455;51.660;5.824;2022-09-09T10:04:26;4.0;;;1.0;;
45382;SDS011;42455;51.660;5.824;2022-09-09T10:09:33;5.5;;;2.0;;
45382;SDS011;42455;51.660;5.824;2022-09-09T10:14:52;6.0;;;2.0;;
45382;SDS011;42455;51.660;5.824;2022-09-09T10:19:46;4.5;;;2.0;;
45382;SDS011;42455;51.660;5.824;2022-09-09T10:25:35;5.0;;;2.0;;
45382;SDS011;42455;51.660;5.824;2022-09-09T10:30:31;4.0;;;2.0;;
45382;SDS011;42455;51.660;5.824;2022-09-09T10:35:20;5.0;;;2.0;;
45382;SDS011;42455;51.660;5.824;2022-09-09T10:40:26;4.0;;;1.0;;
45382;SDS011;42455;51.660;5.824;2022-09-09T10:45:18;5.0;;;1.0;;
45382;SDS011;42455;51.660;5.824;2022-09-09T10:50:58;4.5;;;1.0;;
45382;SDS011;42455;51.660;5.824;2022-09-09T10:55:35;3.0;;;1.0;;
45382;SDS011;42455;51.660;5.824;2022-09-09T11:00:44;5.5;;;2.0;;
45382;SDS011;42455;51.660;5.824;2022-09-09T11:05:44;5.0;;;2.0;;
45382;SDS011;42455;51.660;5.824;2022-09-09T11:10:56;6.0;;;2.0;;
45382;SDS011;42455;51.660;5.824;2022-09-09T11:16:17;4.0;;;2.0;;
45382;SDS011;42455;51.660;5.824;2022-09-09T11:21:01;5.0;;;1.0;;
45382;SDS011;42455;51.660;5.824;2022-09-09T11:26:05;4.0;;;2.0;;
45382;SDS011;42455;51.660;5.824;2022-09-09T11:32:09;5.0;;;2.0;;
45382;SDS011;42455;51.660;5.824;2022-09-09T11:38:10;5.0;;;2.0;;
45382;SDS011;42455;51.660;5.824;2022-09-09T11:41:32;4.5;;;2.0;;
45382;SDS011;42455;51.660;5.824;2022-09-09T11:46:36;4.0;;;2.0;;
45382;SDS011;42455;51.660;5.824;2022-09-09T11:51:36;4.0;;;2.0;;
45382;SDS011;42455;51.660;5.824;2022-09-09T11:56:44;5.0;;;2.0;;
45382;SDS011;42455;51.660;5.824;2022-09-09T12:01:50;4.0;;;2.0;;
45382;SDS011;42455;51.660;5.824;2022-09-09T12:12:05;3.0;;;1.0;;
45382;SDS011;42455;51.660;5.824;2022-09-09T12:17:10;2.0;;;1.0;;
45382;SDS011;42455;51.660;5.824;2022-09-09T12:22:34;3.0;;;1.0;;
45382;SDS011;42455;51.660;5.824;2022-09-09T12:27:18;3.0;;;1.0;;
45382;SDS011;42455;51.660;5.824;2022-09-09T12:32:24;3.0;;;1.0;;
45382;SDS011;42455;51.660;5.824;2022-09-09T12:37:35;3.0;;;2.0;;
45382;SDS011;42455;51.660;5.824;2022-09-09T12:42:39;3.0;;;2.0;;
45382;SDS011;42455;51.660;5.824;2022-09-09T12:47:44;9.0;;;3.0;;
45382;SDS011;42455;51.660;5.824;2022-09-09T12:52:49;3.0;;;2.0;;
45382;SDS011;42455;51.660;5.824;2022-09-09T12:57:55;3.0;;;2.0;;
45382;SDS011;42455;51.660;5.824;2022-09-09T13:03:01;4.0;;;2.0;;
45382;SDS011;42455;51.660;5.824;2022-09-09T13:08:10;5.0;;;2.0;;
45382;SDS011;42455;51.660;5.824;2022-09-09T13:13:13;3.5;;;2.0;;
45382;SDS011;42455;51.660;5.824;2022-09-09T13:18:22;4.0;;;2.0;;
45382;SDS011;42455;51.660;5.824;2022-09-09T13:23:27;3.0;;;2.0;;
45382;SDS011;42455;51.660;5.824;2022-09-09T13:28:32;3.0;;;2.0;;
45382;SDS011;42455;51.660;5.824;2022-09-09T13:33:39;4.5;;;2.0;;
45382;SDS011;42455;51.660;5.824;2022-09-09T13:38:53;4.0;;;2.0;;
45382;SDS011;42455;51.660;5.824;2022-09-09T13:43:51;4.0;;;2.0;;
45382;SDS011;42455;51.660;5.824;2022-09-09T13:48:57;5.0;;;2.0;;
45382;SDS011;42455;51.660;5.824;2022-09-09T13:54:03;3.0;;;2.0;;
45382;SDS011;42455;51.660;5.824;2022-09-09T13:59:12;4.0;;;2.0;;
45382;SDS011;42455;51.660;5.824;2022-09-09T14:04:15;5.0;;;3.0;;
45382;SDS011;42455;51.660;5.824;2022-09-09T14:09:21;4.0;;;2.0;;
45382;SDS011;42455;51.660;5.824;2022-09-09T14:14:27;4.0;;;2.0;;
45382;SDS011;42455;51.660;5.824;2022-09-09T14:19:33;3.0;;;3.0;;
45382;SDS011;42455;51.660;5.824;2022-09-09T14:24:39;3.0;;;2.0;;
45382;SDS011;42455;51.660;5.824;2022-09-09T14:29:45;3.0;;;1.0;;
45382;SDS011;42455;51.660;5.824;2022-09-09T14:34:52;3.0;;;1.0;;
45382;SDS011;42455;51.660;5.824;2022-09-09T14:39:58;3.0;;;1.0;;
45382;SDS011;42455;51.660;5.824;2022-09-09T14:45:04;3.0;;;1.0;;
45382;SDS011;42455;51.660;5.824;2022-09-09T14:50:10;4.0;;;1.0;;
45382;SDS011;42455;51.660;5.824;2022-09-09T14:55:16;3.0;;;1.0;;
45382;SDS011;42455;51.660;5.824;2022-09-09T15:00:23;4.0;;;2.0;;
45382;SDS011;42455;51.660;5.824;2022-09-09T15:05:29;3.0;;;1.0;;
45382;SDS011;42455;51.660;5.824;2022-09-09T15:10:35;3.0;;;1.0;;
45382;SDS011;42455;51.660;5.824;2022-09-09T15:15:41;2.0;;;1.0;;
45382;SDS011;42455;51.660;5.824;2022-09-09T15:25:54;2.0;;;1.0;;
45382;SDS011;42455;51.660;5.824;2022-09-09T15:31:00;4.0;;;1.0;;
45382;SDS011;42455;51.660;5.824;2022-09-09T15:36:12;2.0;;;1.0;;
45382;SDS011;42455;51.660;5.824;2022-09-09T15:41:13;2.0;;;1.0;;
45382;SDS011;42455;51.660;5.824;2022-09-09T15:46:31;2.5;;;1.0;;
45382;SDS011;42455;51.660;5.824;2022-09-09T15:51:25;2.5;;;1.0;;
45382;SDS011;42455;51.660;5.824;2022-09-09T15:56:31;3.0;;;1.0;;
45382;SDS011;42455;51.660;5.824;2022-09-09T16:01:36;1.0;;;1.0;;
45382;SDS011;42455;51.660;5.824;2022-09-09T16:06:42;1.0;;;0.0;;
45382;SDS011;42455;51.660;5.824;2022-09-09T16:11:48;2.0;;;0.0;;
45382;SDS011;42455;51.660;5.824;2022-09-09T16:16:54;1.0;;;0.0;;
45382;SDS011;42455;51.660;5.824;2022-09-09T16:22:00;2.0;;;0.0;;
45382;SDS011;42455;51.660;5.824;2022-09-09T16:27:06;1.0;;;0.0;;
45382;SDS011;42455;51.660;5.824;2022-09-09T16:32:12;0.0;;;0.0;;
45382;SDS011;42455;51.660;5.824;2022-09-09T16:37:19;1.0;;;0.0;;
45382;SDS011;42455;51.660;5.824;2022-09-09T16:42:25;1.0;;;1.0;;
45382;SDS011;42455;51.660;5.824;2022-09-09T16:47:31;1.0;;;1.0;;
45382;SDS011;42455;51.660;5.824;2022-09-09T16:52:37;1.0;;;1.0;;
45382;SDS011;42455;51.660;5.824;2022-09-09T16:57:43;1.0;;;1.0;;
45382;SDS011;42455;51.660;5.824;2022-09-09T17:02:50;2.0;;;1.0;;
45382;SDS011;42455;51.660;5.824;2022-09-09T17:07:56;1.0;;;1.0;;
45382;SDS011;42455;51.660;5.824;2022-09-09T17:13:02;1.0;;;1.0;;
45382;SDS011;42455;51.660;5.824;2022-09-09T17:18:08;2.0;;;1.0;;
45382;SDS011;42455;51.660;5.824;2022-09-09T17:23:15;2.0;;;1.0;;
45382;SDS011;42455;51.660;5.824;2022-09-09T17:28:21;3.0;;;2.0;;
45382;SDS011;42455;51.660;5.824;2022-09-09T17:33:27;2.0;;;2.0;;
45382;SDS011;42455;51.660;5.824;2022-09-09T17:38:33;2.0;;;1.0;;
45382;SDS011;42455;51.660;5.824;2022-09-09T17:43:40;2.0;;;1.0;;
45382;SDS011;42455;51.660;5.824;2022-09-09T17:48:45;2.0;;;1.0;;
45382;SDS011;42455;51.660;5.824;2022-09-09T17:53:52;2.0;;;1.0;;
45382;SDS011;42455;51.660;5.824;2022-09-09T17:58:58;2.0;;;1.0;;
45382;SDS011;42455;51.660;5.824;2022-09-09T18:04:04;2.0;;;1.0;;
45382;SDS011;42455;51.660;5.824;2022-09-09T18:09:10;1.0;;;1.0;;
45382;SDS011;42455;51.660;5.824;2022-09-09T18:14:16;2.0;;;1.0;;
45382;SDS011;42455;51.660;5.824;2022-09-09T18:19:22;1.0;;;1.0;;
45382;SDS011;42455;51.660;5.824;2022-09-09T18:24:27;1.0;;;1.0;;
45382;SDS011;42455;51.660;5.824;2022-09-09T18:29:33;2.0;;;1.0;;
45382;SDS011;42455;51.660;5.824;2022-09-09T18:34:39;1.0;;;1.0;;
45382;SDS011;42455;51.660;5.824;2022-09-09T18:39:46;1.0;;;1.0;;
45382;SDS011;42455;51.660;5.824;2022-09-09T18:44:52;1.0;;;1.0;;
45382;SDS011;42455;51.660;5.824;2022-09-09T18:49:58;1.0;;;1.0;;
45382;SDS011;42455;51.660;5.824;2022-09-09T18:55:05;2.0;;;1.0;;
45382;SDS011;42455;51.660;5.824;2022-09-09T19:00:11;1.0;;;1.0;;
45382;SDS011;42455;51.660;5.824;2022-09-09T19:05:17;2.0;;;2.0;;
45382;SDS011;42455;51.660;5.824;2022-09-09T19:10:23;2.0;;;2.0;;
45382;SDS011;42455;51.660;5.824;2022-09-09T19:15:29;2.0;;;2.0;;
45382;SDS011;42455;51.660;5.824;2022-09-09T19:20:35;2.0;;;2.0;;
45382;SDS011;42455;51.660;5.824;2022-09-09T19:25:42;3.0;;;2.0;;
45382;SDS011;42455;51.660;5.824;2022-09-09T19:30:48;2.0;;;2.0;;
45382;SDS011;42455;51.660;5.824;2022-09-09T19:35:55;3.0;;;2.0;;
45382;SDS011;42455;51.660;5.824;2022-09-09T19:41:02;3.0;;;2.0;;
45382;SDS011;42455;51.660;5.824;2022-09-09T19:46:07;4.0;;;3.0;;
45382;SDS011;42455;51.660;5.824;2022-09-09T19:51:14;3.5;;;3.0;;
45382;SDS011;42455;51.660;5.824;2022-09-09T19:56:18;3.0;;;3.0;;
45382;SDS011;42455;51.660;5.824;2022-09-09T20:01:26;4.0;;;3.0;;
45382;SDS011;42455;51.660;5.824;2022-09-09T20:06:30;3.0;;;3.0;;
45382;SDS011;42455;51.660;5.824;2022-09-09T20:11:34;3.0;;;3.0;;
45382;SDS011;42455;51.660;5.824;2022-09-09T20:16:41;3.0;;;3.0;;
45382;SDS011;42455;51.660;5.824;2022-09-09T20:21:47;4.0;;;3.0;;
45382;SDS011;42455;51.660;5.824;2022-09-09T20:26:53;3.0;;;3.0;;
45382;SDS011;42455;51.660;5.824;2022-09-09T20:31:59;4.0;;;3.0;;
45382;SDS011;42455;51.660;5.824;2022-09-09T20:37:05;3.0;;;3.0;;
45382;SDS011;42455;51.660;5.824;2022-09-09T20:42:12;3.0;;;3.0;;
45382;SDS011;42455;51.660;5.824;2022-09-09T20:47:18;3.5;;;3.0;;
45382;SDS011;42455;51.660;5.824;2022-09-09T20:52:24;3.0;;;3.0;;
45382;SDS011;42455;51.660;5.824;2022-09-09T20:57:30;4.0;;;3.0;;
45382;SDS011;42455;51.660;5.824;2022-09-09T21:02:37;4.0;;;3.0;;
45382;SDS011;42455;51.660;5.824;2022-09-09T21:07:43;4.0;;;3.0;;
45382;SDS011;42455;51.660;5.824;2022-09-09T21:12:49;4.0;;;3.0;;
45382;SDS011;42455;51.660;5.824;2022-09-09T21:17:55;4.0;;;3.0;;
45382;SDS011;42455;51.660;5.824;2022-09-09T21:23:02;4.0;;;4.0;;
45382;SDS011;42455;51.660;5.824;2022-09-09T21:28:08;4.0;;;4.0;;
45382;SDS011;42455;51.660;5.824;2022-09-09T21:33:14;4.0;;;4.0;;
45382;SDS011;42455;51.660;5.824;2022-09-09T21:38:23;5.0;;;4.0;;
45382;SDS011;42455;51.660;5.824;2022-09-09T21:43:26;6.0;;;4.0;;
45382;SDS011;42455;51.660;5.824;2022-09-09T21:48:33;5.0;;;4.0;;
45382;SDS011;42455;51.660;5.824;2022-09-09T21:53:39;5.0;;;4.0;;
45382;SDS011;42455;51.660;5.824;2022-09-09T21:58:44;4.5;;;4.0;;
45382;SDS011;42455;51.660;5.824;2022-09-09T22:03:50;5.0;;;4.0;;
45382;SDS011;42455;51.660;5.824;2022-09-09T22:08:56;4.0;;;3.0;;
45382;SDS011;42455;51.660;5.824;2022-09-09T22:14:02;5.0;;;3.0;;
45382;SDS011;42455;51.660;5.824;2022-09-09T22:19:09;5.0;;;3.0;;
45382;SDS011;42455;51.660;5.824;2022-09-09T22:24:15;5.0;;;3.0;;
45382;SDS011;42455;51.660;5.824;2022-09-09T22:29:21;5.0;;;3.0;;
45382;SDS011;42455;51.660;5.824;2022-09-09T22:34:27;5.0;;;3.0;;
45382;SDS011;42455;51.660;5.824;2022-09-09T22:39:34;5.0;;;3.0;;
45382;SDS011;42455;51.660;5.824;2022-09-09T22:44:40;5.5;;;3.0;;
45382;SDS011;42455;51.660;5.824;2022-09-09T22:49:46;7.0;;;3.0;;
45382;SDS011;42455;51.660;5.824;2022-09-09T22:54:52;6.0;;;3.0;;
45382;SDS011;42455;51.660;5.824;2022-09-09T23:05:05;6.0;;;3.0;;
45382;SDS011;42455;51.660;5.824;2022-09-09T23:10:11;5.0;;;3.0;;
45382;SDS011;42455;51.660;5.824;2022-09-09T23:15:17;6.0;;;3.0;;
45382;SDS011;42455;51.660;5.824;2022-09-09T23:20:23;5.5;;;3.0;;
45382;SDS011;42455;51.660;5.824;2022-09-09T23:25:29;5.0;;;3.0;;
45382;SDS011;42455;51.660;5.824;2022-09-09T23:30:40;6.0;;;3.0;;
45382;SDS011;42455;51.660;5.824;2022-09-09T23:35:42;6.0;;;4.0;;
45382;SDS011;42455;51.660;5.824;2022-09-09T23:40:48;7.0;;;4.0;;
45382;SDS011;42455;51.660;5.824;2022-09-09T23:45:54;6.0;;;3.0;;
45382;SDS011;42455;51.660;5.824;2022-09-09T23:51:00;8.0;;;4.0;;
45382;SDS011;42455;51.660;5.824;2022-09-09T23:56:06;7.0;;;4.0;;
